YMGI weather

Mungindi Airport
New South Wales, Australia

Public forecast

Using degrees Celsius for public forecast. Weather courtesy of forecast.io.

METAR (pilot weather report)

Closest report is Moree Airport, 52.2 nm (96.6 km) SE. Retrieved 2019/07/18 04:00 UTC (20 minutes ago):

YMOR 180400Z AUTO 23014KT 9999 // NCD 17/01 Q1018

TAF (pilot weather forecast)

Forecast is more than 6 hours old.

Closest forecast is RAAF Base Amberley, 208.9 nm (386.9 km) ENE. Retrieved 2019/07/17 18:00 UTC (10 hours ago):

TAF YAMB 171809Z 1718/1812 25006KT CAVOK FM180100 22010KT CAVOK FM180700 15007KT CAVOK FM180900 23004KT CAVOK